createdAt,value
2018-10-03T00:00:13.360Z,1006.63
2018-10-03T00:01:13.348Z,1006.61
2018-10-03T00:02:13.689Z,1006.64
2018-10-03T00:03:13.253Z,1006.63
2018-10-03T00:04:13.286Z,1006.63
2018-10-03T00:05:13.419Z,1006.65
2018-10-03T00:06:13.196Z,1006.63
2018-10-03T00:07:13.302Z,1006.62
2018-10-03T00:08:13.191Z,1006.67
2018-10-03T00:09:14.281Z,1006.61
2018-10-03T00:10:13.149Z,1006.59
2018-10-03T00:11:13.252Z,1006.64
2018-10-03T00:12:13.207Z,1006.64
2018-10-03T00:13:13.903Z,1006.68
2018-10-03T00:14:13.179Z,1006.71
2018-10-03T00:15:13.089Z,1006.72
2018-10-03T00:16:13.243Z,1006.71
2018-10-03T00:17:13.672Z,1006.66
2018-10-03T00:18:13.574Z,1006.68
2018-10-03T00:19:13.045Z,1006.63
2018-10-03T00:20:13.123Z,1006.59
2018-10-03T00:21:13.015Z,1006.61
2018-10-03T00:22:13.711Z,1006.68
2018-10-03T00:23:13.041Z,1006.71
2018-10-03T00:24:12.979Z,1006.75
2018-10-03T00:25:12.969Z,1006.74
2018-10-03T00:26:12.954Z,1006.77
2018-10-03T00:27:12.941Z,1006.76
2018-10-03T00:28:13.118Z,1006.82
2018-10-03T00:29:13.553Z,1006.82
2018-10-03T00:30:12.913Z,1006.86
2018-10-03T00:31:12.896Z,1006.86
2018-10-03T00:32:12.970Z,1006.89
2018-10-03T00:33:13.071Z,1006.94
2018-10-03T00:34:12.859Z,1007.01
2018-10-03T00:35:12.849Z,1007.03
2018-10-03T00:36:13.397Z,1007.05
2018-10-03T00:37:12.929Z,1007.04
2018-10-03T00:38:12.813Z,1007.05
2018-10-03T00:39:12.822Z,1007.15
2018-10-03T00:40:12.785Z,1007.19
2018-10-03T00:41:12.780Z,1007.16
2018-10-03T00:42:12.760Z,1007.17
2018-10-03T00:43:12.923Z,1007.16
2018-10-03T00:44:12.927Z,1007.17
2018-10-03T00:45:12.732Z,1007.16
2018-10-03T00:46:12.790Z,1007.13
2018-10-03T00:47:12.700Z,1007.10
2018-10-03T00:48:12.774Z,1007.14
2018-10-03T00:49:12.708Z,1007.12
2018-10-03T00:50:12.662Z,1007.10
2018-10-03T00:51:12.727Z,1007.11
2018-10-03T00:52:12.729Z,1007.11
2018-10-03T00:53:12.739Z,1007.13
2018-10-03T00:54:12.626Z,1007.15
2018-10-03T00:55:12.624Z,1007.11
2018-10-03T00:56:12.602Z,1007.14
2018-10-03T00:57:12.687Z,1007.17
2018-10-03T00:58:12.571Z,1007.20
2018-10-03T00:59:12.554Z,1007.16
2018-10-03T01:00:12.579Z,1007.13
2018-10-03T01:01:12.531Z,1007.13
2018-10-03T01:02:12.525Z,1007.13
2018-10-03T01:03:12.513Z,1007.11
2018-10-03T01:04:12.502Z,1007.13
2018-10-03T01:05:12.491Z,1007.05
2018-10-03T01:06:12.502Z,1007.08
2018-10-03T01:07:12.469Z,1007.09
2018-10-03T01:08:12.449Z,1007.12
2018-10-03T01:09:12.439Z,1007.10
2018-10-03T01:10:12.429Z,1007.11
2018-10-03T01:11:12.435Z,1007.16
2018-10-03T01:12:12.406Z,1007.14
2018-10-03T01:13:12.390Z,1007.17
2018-10-03T01:14:12.380Z,1007.16
2018-10-03T01:15:12.372Z,1007.21
2018-10-03T01:16:12.389Z,1007.15
2018-10-03T01:17:12.342Z,1007.16
2018-10-03T01:18:12.329Z,1007.11
2018-10-03T01:19:12.319Z,1007.08
2018-10-03T01:20:12.311Z,1007.11
2018-10-03T01:21:12.318Z,1007.10
2018-10-03T01:22:12.280Z,1007.10
2018-10-03T01:23:12.271Z,1007.14
2018-10-03T01:24:12.262Z,1007.17
2018-10-03T01:25:12.240Z,1007.15
2018-10-03T01:26:12.260Z,1007.16
2018-10-03T01:27:12.220Z,1007.19
2018-10-03T01:28:12.205Z,1007.14
2018-10-03T01:29:12.202Z,1007.10
2018-10-03T01:30:12.188Z,1007.11
2018-10-03T01:31:12.202Z,1007.03
2018-10-03T01:32:12.158Z,1007.02
2018-10-03T01:33:12.155Z,1007.02
2018-10-03T01:34:12.137Z,1007.03
2018-10-03T01:35:12.127Z,1007.09
2018-10-03T01:36:12.170Z,1007.08
2018-10-03T01:37:12.103Z,1007.09
2018-10-03T01:38:12.114Z,1007.05
2018-10-03T01:39:12.074Z,1007.09
2018-10-03T01:40:12.073Z,1007.12
2018-10-03T01:41:12.052Z,1007.14
2018-10-03T01:42:12.067Z,1007.19
2018-10-03T01:43:12.030Z,1007.24
2018-10-03T01:44:12.017Z,1007.22
2018-10-03T01:45:12.001Z,1007.21
2018-10-03T01:46:11.993Z,1007.12
2018-10-03T01:47:12.010Z,1007.14
2018-10-03T01:48:11.974Z,1007.18
2018-10-03T01:49:11.954Z,1007.17
2018-10-03T01:50:11.944Z,1007.20
2018-10-03T01:51:11.936Z,1007.22
2018-10-03T01:52:11.950Z,1007.19
2018-10-03T01:53:11.909Z,1007.24
2018-10-03T01:54:11.902Z,1007.20
2018-10-03T01:55:11.881Z,1007.17
2018-10-03T01:56:11.873Z,1007.17
2018-10-03T01:57:11.877Z,1007.18
2018-10-03T01:58:11.848Z,1007.20
2018-10-03T01:59:11.841Z,1007.19
2018-10-03T02:00:11.821Z,1007.16
2018-10-03T02:01:11.816Z,1007.20
2018-10-03T02:02:11.817Z,1007.23
2018-10-03T02:03:11.792Z,1007.22
2018-10-03T02:04:11.778Z,1007.28
2018-10-03T02:05:11.762Z,1007.25
2018-10-03T02:06:11.750Z,1007.25
2018-10-03T02:07:11.763Z,1007.36
2018-10-03T02:08:11.732Z,1007.36
2018-10-03T02:09:11.709Z,1007.30
2018-10-03T02:10:11.698Z,1007.33
2018-10-03T02:11:11.695Z,1007.33
2018-10-03T02:12:11.698Z,1007.34
2018-10-03T02:13:11.665Z,1007.41
2018-10-03T02:14:11.652Z,1007.43
2018-10-03T02:15:11.637Z,1007.40
2018-10-03T02:16:11.631Z,1007.40
2018-10-03T02:17:11.642Z,1007.41
2018-10-03T02:18:11.610Z,1007.40
2018-10-03T02:19:11.589Z,1007.38
2018-10-03T02:20:11.591Z,1007.40
2018-10-03T02:21:11.566Z,1007.46
2018-10-03T02:22:11.582Z,1007.45
2018-10-03T02:23:11.544Z,1007.47
2018-10-03T02:24:11.534Z,1007.49
2018-10-03T02:25:11.524Z,1007.53
2018-10-03T02:26:11.514Z,1007.54
2018-10-03T02:27:11.517Z,1007.50
2018-10-03T02:28:11.489Z,1007.54
2018-10-03T02:29:11.477Z,1007.49
2018-10-03T02:30:11.463Z,1007.50
2018-10-03T02:31:11.456Z,1007.49
2018-10-03T02:32:11.461Z,1007.50
2018-10-03T02:33:11.423Z,1007.51
2018-10-03T02:34:11.415Z,1007.53
2018-10-03T02:35:11.400Z,1007.52
2018-10-03T02:36:11.390Z,1007.53
2018-10-03T02:37:11.400Z,1007.54
2018-10-03T02:38:11.369Z,1007.53
2018-10-03T02:39:11.348Z,1007.54
2018-10-03T02:40:11.354Z,1007.55
2018-10-03T02:41:11.324Z,1007.47
2018-10-03T02:42:11.349Z,1007.50
2018-10-03T02:43:11.301Z,1007.52
2018-10-03T02:44:11.289Z,1007.49
2018-10-03T02:45:11.278Z,1007.56
2018-10-03T02:46:11.274Z,1007.54
2018-10-03T02:47:11.258Z,1007.61
2018-10-03T02:48:11.266Z,1007.64
2018-10-03T02:49:11.234Z,1007.63
2018-10-03T02:50:11.231Z,1007.63
2018-10-03T02:51:11.204Z,1007.61
2018-10-03T02:52:11.202Z,1007.59
2018-10-03T02:53:11.210Z,1007.61
2018-10-03T02:54:11.174Z,1007.65
2018-10-03T02:55:11.158Z,1007.64
2018-10-03T02:56:11.149Z,1007.65
2018-10-03T02:57:11.134Z,1007.67
2018-10-03T02:58:11.149Z,1007.70
2018-10-03T02:59:11.107Z,1007.71
2018-10-03T03:00:11.098Z,1007.73
2018-10-03T03:01:11.083Z,1007.72
2018-10-03T03:02:11.075Z,1007.73
2018-10-03T03:03:11.091Z,1007.75
2018-10-03T03:04:11.046Z,1007.74
2018-10-03T03:05:11.047Z,1007.71
2018-10-03T03:06:11.027Z,1007.72
2018-10-03T03:07:11.014Z,1007.76
2018-10-03T03:08:11.020Z,1007.75
2018-10-03T03:09:11.089Z,1007.74
2018-10-03T03:10:10.984Z,1007.79
2018-10-03T03:11:10.962Z,1007.81
2018-10-03T03:12:10.954Z,1007.79
2018-10-03T03:13:10.964Z,1007.76
2018-10-03T03:14:10.926Z,1007.73
2018-10-03T03:15:10.922Z,1007.73
2018-10-03T03:16:10.901Z,1007.74
2018-10-03T03:17:10.891Z,1007.73
2018-10-03T03:18:10.901Z,1007.69
2018-10-03T03:19:10.866Z,1007.72
2018-10-03T03:20:10.856Z,1007.74
2018-10-03T03:21:10.847Z,1007.73
2018-10-03T03:22:10.840Z,1007.70
2018-10-03T03:23:10.847Z,1007.71
2018-10-03T03:24:10.813Z,1007.68
2018-10-03T03:25:10.792Z,1007.70
2018-10-03T03:26:10.789Z,1007.73
2018-10-03T03:27:10.770Z,1007.68
2018-10-03T03:28:10.762Z,1007.73
2018-10-03T03:29:10.768Z,1007.70
2018-10-03T03:30:10.736Z,1007.71
2018-10-03T03:31:10.728Z,1007.74
2018-10-03T03:32:10.712Z,1007.71
2018-10-03T03:33:10.703Z,1007.78
2018-10-03T03:34:10.715Z,1007.82
2018-10-03T03:35:10.681Z,1007.87
2018-10-03T03:36:10.666Z,1007.82
2018-10-03T03:37:10.657Z,1007.82
2018-10-03T03:38:10.636Z,1007.84
2018-10-03T03:39:10.654Z,1007.88
2018-10-03T03:40:10.613Z,1007.91
2018-10-03T03:41:10.609Z,1007.94
2018-10-03T03:42:10.592Z,1007.89
2018-10-03T03:43:10.581Z,1007.85
2018-10-03T03:44:10.589Z,1007.88
2018-10-03T03:45:10.557Z,1007.90
2018-10-03T03:46:10.546Z,1007.93
2018-10-03T03:47:10.530Z,1007.98
2018-10-03T03:48:10.514Z,1007.99
2018-10-03T03:49:10.535Z,1007.96
2018-10-03T03:50:10.495Z,1008.00
2018-10-03T03:51:10.479Z,1007.98
2018-10-03T03:52:10.479Z,1008.09
2018-10-03T03:53:10.461Z,1008.09
2018-10-03T03:54:10.476Z,1008.05
2018-10-03T03:55:10.433Z,1008.08
2018-10-03T03:56:10.427Z,1008.10
2018-10-03T03:57:10.414Z,1008.15
2018-10-03T03:58:10.401Z,1008.14
2018-10-03T03:59:10.421Z,1008.17
2018-10-03T04:00:10.374Z,1008.19
2018-10-03T04:01:10.372Z,1008.17
2018-10-03T04:02:10.357Z,1008.14
2018-10-03T04:03:10.337Z,1008.18
2018-10-03T04:04:10.329Z,1008.12
2018-10-03T04:05:10.341Z,1008.19
2018-10-03T04:06:10.307Z,1008.14
2018-10-03T04:07:10.293Z,1008.09
2018-10-03T04:08:10.278Z,1008.05
2018-10-03T04:09:10.274Z,1008.03
2018-10-03T04:10:10.281Z,1008.05
2018-10-03T04:11:10.243Z,1008.05
2018-10-03T04:12:10.229Z,1008.02
2018-10-03T04:13:10.225Z,1007.99
2018-10-03T04:14:10.213Z,1007.96
2018-10-03T04:15:10.214Z,1007.99
2018-10-03T04:16:10.182Z,1008.05
2018-10-03T04:17:10.175Z,1008.05
2018-10-03T04:18:10.162Z,1008.03
2018-10-03T04:19:10.149Z,1008.08
2018-10-03T04:20:10.155Z,1008.09
2018-10-03T04:21:10.129Z,1008.11
2018-10-03T04:22:10.107Z,1008.13
2018-10-03T04:23:10.098Z,1008.12
2018-10-03T04:24:10.088Z,1008.15
2018-10-03T04:25:10.102Z,1008.09
2018-10-03T04:26:10.072Z,1008.10
2018-10-03T04:27:10.056Z,1008.16
2018-10-03T04:28:10.037Z,1008.21
2018-10-03T04:29:10.029Z,1008.24
2018-10-03T04:30:10.039Z,1008.26
2018-10-03T04:31:10.003Z,1008.26
2018-10-03T04:32:09.987Z,1008.26
2018-10-03T04:33:09.986Z,1008.27
2018-10-03T04:34:09.966Z,1008.28
2018-10-03T04:35:10.003Z,1008.31
2018-10-03T04:36:09.942Z,1008.40
2018-10-03T04:37:09.934Z,1008.36
2018-10-03T04:38:09.920Z,1008.43
2018-10-03T04:39:09.914Z,1008.41
2018-10-03T04:40:09.918Z,1008.38
2018-10-03T04:41:09.883Z,1008.38
2018-10-03T04:42:09.922Z,1008.43
2018-10-03T04:43:09.858Z,1008.43
2018-10-03T04:44:09.850Z,1008.45
2018-10-03T04:45:09.856Z,1008.47
2018-10-03T04:46:09.829Z,1008.46
2018-10-03T04:47:09.808Z,1008.48
2018-10-03T04:48:09.809Z,1008.48
2018-10-03T04:49:09.892Z,1008.46
2018-10-03T04:50:09.800Z,1008.49
2018-10-03T04:51:09.762Z,1008.51
2018-10-03T04:52:09.746Z,1008.45
2018-10-03T04:53:09.744Z,1008.50
2018-10-03T04:54:09.726Z,1008.48
2018-10-03T04:55:09.735Z,1008.49
2018-10-03T04:56:09.707Z,1008.54
2018-10-03T04:57:09.691Z,1008.46
2018-10-03T04:58:09.683Z,1008.51
2018-10-03T04:59:09.662Z,1008.52
2018-10-03T05:00:09.674Z,1008.56
2018-10-03T05:01:09.645Z,1008.58
2018-10-03T05:02:09.633Z,1008.65
2018-10-03T05:03:09.618Z,1008.68
2018-10-03T05:04:09.605Z,1008.64
2018-10-03T05:05:09.630Z,1008.62
2018-10-03T05:06:09.589Z,1008.70
2018-10-03T05:07:09.569Z,1008.70
2018-10-03T05:08:09.560Z,1008.70
2018-10-03T05:09:09.551Z,1008.75
2018-10-03T05:10:09.537Z,1008.79
2018-10-03T05:11:09.560Z,1008.79
2018-10-03T05:12:09.507Z,1008.74
2018-10-03T05:13:09.505Z,1008.81
2018-10-03T05:14:09.483Z,1008.78
2018-10-03T05:15:09.487Z,1008.84
2018-10-03T05:16:09.489Z,1008.79
2018-10-03T05:17:09.450Z,1008.75
2018-10-03T05:18:09.440Z,1008.80
2018-10-03T05:19:09.430Z,1008.79
2018-10-03T05:20:09.421Z,1008.82
2018-10-03T05:21:09.465Z,1008.81
2018-10-03T05:22:09.393Z,1008.81
2018-10-03T05:23:09.380Z,1008.82
2018-10-03T05:24:09.373Z,1008.80
2018-10-03T05:25:09.362Z,1008.80
2018-10-03T05:26:09.364Z,1008.81
2018-10-03T05:27:09.336Z,1008.80
2018-10-03T05:28:09.323Z,1008.81
2018-10-03T05:29:09.314Z,1008.81
2018-10-03T05:30:09.300Z,1008.83
2018-10-03T05:31:09.308Z,1008.87
2018-10-03T05:32:09.276Z,1008.84
2018-10-03T05:33:09.274Z,1008.91
2018-10-03T05:34:09.255Z,1008.95
2018-10-03T05:35:09.235Z,1008.92
2018-10-03T05:36:09.253Z,1008.88
2018-10-03T05:37:09.222Z,1008.90
2018-10-03T05:38:09.202Z,1008.94
2018-10-03T05:39:09.189Z,1009.02
2018-10-03T05:40:09.183Z,1009.00
2018-10-03T05:41:09.193Z,1009.07
2018-10-03T05:42:09.152Z,1009.06
2018-10-03T05:43:09.141Z,1009.13
2018-10-03T05:44:09.135Z,1009.27
2018-10-03T05:45:09.125Z,1009.30
2018-10-03T05:46:09.134Z,1009.33
2018-10-03T05:47:09.100Z,1009.37
2018-10-03T05:48:09.080Z,1009.33
2018-10-03T05:49:09.331Z,1009.22
2018-10-03T05:50:09.102Z,1009.25
2018-10-03T05:51:09.070Z,1009.28
2018-10-03T05:52:09.169Z,1009.23
2018-10-03T05:53:09.111Z,1009.23
2018-10-03T05:54:09.008Z,1009.16
2018-10-03T05:55:09.006Z,1009.27
2018-10-03T05:56:09.012Z,1009.23
2018-10-03T05:57:08.995Z,1009.26
2018-10-03T05:58:08.991Z,1009.28
2018-10-03T05:59:08.956Z,1009.27
2018-10-03T06:00:08.942Z,1009.29
2018-10-03T06:01:09.003Z,1009.29
2018-10-03T06:02:08.971Z,1009.38
2018-10-03T06:03:08.978Z,1009.39
2018-10-03T06:04:08.894Z,1009.41
2018-10-03T06:05:08.887Z,1009.46
2018-10-03T06:06:08.889Z,1009.48
2018-10-03T06:07:08.857Z,1009.53
2018-10-03T06:08:08.842Z,1009.49
2018-10-03T06:09:08.837Z,1009.52
2018-10-03T06:10:08.822Z,1009.58
2018-10-03T06:11:08.835Z,1009.57
2018-10-03T06:12:08.804Z,1009.60
2018-10-03T06:13:08.792Z,1009.60
2018-10-03T06:14:09.075Z,1009.62
2018-10-03T06:15:08.769Z,1009.68
2018-10-03T06:16:08.969Z,1009.63
2018-10-03T06:17:08.844Z,1009.58
2018-10-03T06:18:08.823Z,1009.61
2018-10-03T06:19:08.823Z,1009.63
2018-10-03T06:20:08.770Z,1009.72
2018-10-03T06:21:08.932Z,1009.71
2018-10-03T06:22:09.146Z,1009.69
2018-10-03T06:23:08.895Z,1009.76
2018-10-03T06:24:08.732Z,1009.74
2018-10-03T06:25:08.878Z,1009.75
2018-10-03T06:26:08.849Z,1009.73
2018-10-03T06:27:09.088Z,1009.78
2018-10-03T06:28:08.847Z,1009.76
2018-10-03T06:29:09.279Z,1009.78
2018-10-03T06:30:08.840Z,1009.87
2018-10-03T06:31:08.989Z,1009.88
2018-10-03T06:32:09.021Z,1009.89
2018-10-03T06:33:08.777Z,1009.88
2018-10-03T06:34:08.763Z,1009.87
2018-10-03T06:35:08.751Z,1010.01
2018-10-03T06:36:08.740Z,1009.97
2018-10-03T06:37:08.971Z,1009.95
2018-10-03T06:38:08.613Z,1009.93
2018-10-03T06:39:08.702Z,1009.98
2018-10-03T06:40:08.709Z,1009.98
2018-10-03T06:41:08.675Z,1010.01
2018-10-03T06:42:08.963Z,1009.99
2018-10-03T06:43:08.685Z,1010.02
2018-10-03T06:44:08.645Z,1010.02
2018-10-03T06:45:08.633Z,1010.04
2018-10-03T06:46:08.625Z,1010.07
2018-10-03T06:47:08.860Z,1010.05
2018-10-03T06:48:08.592Z,1010.09
2018-10-03T06:49:08.592Z,1010.10
2018-10-03T06:50:08.579Z,1010.11
2018-10-03T06:51:08.569Z,1010.15
2018-10-03T06:52:08.547Z,1010.11
2018-10-03T06:53:08.774Z,1010.11
2018-10-03T06:54:08.460Z,1010.13
2018-10-03T06:55:08.513Z,1010.19
2018-10-03T06:56:08.505Z,1010.23
2018-10-03T06:57:08.568Z,1010.28
2018-10-03T06:58:08.716Z,1010.32
2018-10-03T06:59:08.477Z,1010.30
2018-10-03T07:00:08.453Z,1010.30
2018-10-03T07:01:08.452Z,1010.34
2018-10-03T07:02:08.434Z,1010.36
2018-10-03T07:03:08.663Z,1010.39
2018-10-03T07:04:08.413Z,1010.40
2018-10-03T07:05:08.178Z,1010.42
2018-10-03T07:06:08.169Z,1010.45
2018-10-03T07:07:08.160Z,1010.50
2018-10-03T07:08:08.165Z,1010.55
2018-10-03T07:09:08.140Z,1010.52
2018-10-03T07:10:08.120Z,1010.60
2018-10-03T07:11:08.109Z,1010.57
2018-10-03T07:12:08.112Z,1010.56
2018-10-03T07:13:08.123Z,1010.56
2018-10-03T07:14:08.079Z,1010.61
2018-10-03T07:15:08.094Z,1010.70
2018-10-03T07:16:08.056Z,1010.72
2018-10-03T07:17:08.039Z,1010.71
2018-10-03T07:18:08.052Z,1010.77
2018-10-03T07:19:08.016Z,1010.74
2018-10-03T07:20:08.056Z,1010.83
2018-10-03T07:21:07.997Z,1010.87
2018-10-03T07:22:07.986Z,1010.84
2018-10-03T07:23:08.000Z,1010.85
2018-10-03T07:24:07.962Z,1010.87
2018-10-03T07:25:07.941Z,1010.92
2018-10-03T07:26:07.992Z,1010.93
2018-10-03T07:27:07.924Z,1010.94
2018-10-03T07:28:07.930Z,1010.98
2018-10-03T07:29:07.898Z,1010.97
2018-10-03T07:30:07.888Z,1011.04
2018-10-03T07:31:07.888Z,1011.03
2018-10-03T07:32:07.861Z,1011.04
2018-10-03T07:33:07.871Z,1011.03
2018-10-03T07:34:07.845Z,1011.05
2018-10-03T07:35:07.835Z,1011.02
2018-10-03T07:36:07.815Z,1011.02
2018-10-03T07:37:07.807Z,1011.10
2018-10-03T07:38:07.821Z,1011.11
2018-10-03T07:39:07.778Z,1011.16
2018-10-03T07:40:07.769Z,1011.15
2018-10-03T07:41:07.757Z,1011.14
2018-10-03T07:42:07.749Z,1011.13
2018-10-03T07:43:07.754Z,1011.13
2018-10-03T07:44:07.784Z,1011.18
2018-10-03T07:45:07.708Z,1011.16
2018-10-03T07:46:07.706Z,1011.13
2018-10-03T07:47:07.690Z,1011.16
2018-10-03T07:48:07.824Z,1011.17
2018-10-03T07:49:07.663Z,1011.21
2018-10-03T07:50:07.657Z,1011.24
2018-10-03T07:51:07.645Z,1011.28
2018-10-03T07:52:07.624Z,1011.26
2018-10-03T07:53:07.651Z,1011.26
2018-10-03T07:54:07.603Z,1011.31
2018-10-03T07:55:07.591Z,1011.24
2018-10-03T07:56:07.637Z,1011.29
2018-10-03T07:57:07.571Z,1011.30
2018-10-03T07:58:07.555Z,1011.33
2018-10-03T07:59:07.608Z,1011.34
2018-10-03T08:00:07.538Z,1011.38
2018-10-03T08:01:07.521Z,1011.48
2018-10-03T08:02:07.511Z,1011.45
2018-10-03T08:03:07.498Z,1011.49
2018-10-03T08:04:07.510Z,1011.50
2018-10-03T08:05:07.472Z,1011.49
2018-10-03T08:06:07.468Z,1011.51
2018-10-03T08:07:07.476Z,1011.51
2018-10-03T08:08:07.445Z,1011.64
2018-10-03T08:09:07.452Z,1011.60
2018-10-03T08:10:07.482Z,1011.80
2018-10-03T08:11:07.401Z,1011.68
2018-10-03T08:12:07.397Z,1011.62
2018-10-03T08:13:07.387Z,1011.65
2018-10-03T08:14:07.388Z,1011.68
2018-10-03T08:15:07.356Z,1011.66
2018-10-03T08:16:07.348Z,1011.66
2018-10-03T08:17:07.335Z,1011.74
2018-10-03T08:18:07.321Z,1011.74
2018-10-03T08:19:07.336Z,1011.77
2018-10-03T08:20:07.297Z,1011.69
2018-10-03T08:21:07.292Z,1011.70
2018-10-03T08:22:07.271Z,1011.80
2018-10-03T08:23:07.270Z,1011.78
2018-10-03T08:24:07.269Z,1011.77
2018-10-03T08:25:07.239Z,1011.83
2018-10-03T08:26:07.233Z,1011.88
2018-10-03T08:27:07.220Z,1011.85
2018-10-03T08:28:07.245Z,1011.96
2018-10-03T08:29:07.217Z,1011.91
2018-10-03T08:30:07.233Z,1011.98
2018-10-03T08:31:07.170Z,1011.99
2018-10-03T08:32:07.157Z,1011.92
2018-10-03T08:33:07.153Z,1011.99
2018-10-03T08:34:07.153Z,1012.05
2018-10-03T08:35:07.124Z,1012.03
2018-10-03T08:36:07.111Z,1012.00
2018-10-03T08:37:07.101Z,1012.09
2018-10-03T08:38:07.087Z,1012.02
2018-10-03T08:39:07.091Z,1012.05
2018-10-03T08:40:07.068Z,1012.20
2018-10-03T08:41:07.053Z,1012.07
2018-10-03T08:42:07.039Z,1012.22
2018-10-03T08:43:07.023Z,1012.32
2018-10-03T08:44:07.041Z,1012.21
2018-10-03T08:45:07.004Z,1012.27
2018-10-03T08:46:06.989Z,1012.27
2018-10-03T08:47:06.983Z,1012.29
2018-10-03T08:48:06.971Z,1012.30
2018-10-03T08:49:06.989Z,1012.29
2018-10-03T08:50:06.945Z,1012.33
2018-10-03T08:51:06.930Z,1012.53
2018-10-03T08:52:06.933Z,1012.68
2018-10-03T08:53:06.917Z,1012.58
2018-10-03T08:54:06.896Z,1012.66
2018-10-03T08:55:06.912Z,1012.64
2018-10-03T08:56:06.879Z,1012.66
2018-10-03T08:57:06.870Z,1012.61
2018-10-03T08:58:06.966Z,1012.71
2018-10-03T08:59:06.845Z,1012.39
2018-10-03T09:00:06.854Z,1012.60
2018-10-03T09:01:06.821Z,1012.62
2018-10-03T09:02:06.811Z,1012.64
2018-10-03T09:03:06.795Z,1012.64
2018-10-03T09:04:06.790Z,1012.70
2018-10-03T09:05:06.800Z,1012.70
2018-10-03T09:06:06.757Z,1012.74
2018-10-03T09:07:06.750Z,1012.73
2018-10-03T09:08:06.746Z,1012.70
2018-10-03T09:09:06.730Z,1012.78
2018-10-03T09:10:06.742Z,1012.75
2018-10-03T09:11:06.701Z,1012.74
2018-10-03T09:12:06.699Z,1012.78
2018-10-03T09:13:06.688Z,1012.82
2018-10-03T09:14:06.670Z,1012.84
2018-10-03T09:15:06.678Z,1012.86
2018-10-03T09:16:06.654Z,1012.89
2018-10-03T09:17:06.642Z,1012.84
2018-10-03T09:18:06.627Z,1012.86
2018-10-03T09:19:06.614Z,1012.42
2018-10-03T09:20:06.629Z,1012.85
2018-10-03T09:21:06.589Z,1012.87
2018-10-03T09:22:06.588Z,1012.79
2018-10-03T09:23:06.567Z,1012.83
2018-10-03T09:24:06.569Z,1012.91
2018-10-03T09:25:06.568Z,1012.85
2018-10-03T09:26:06.539Z,1012.50
2018-10-03T09:27:06.525Z,1012.45
2018-10-03T09:28:06.517Z,1012.96
2018-10-03T09:29:06.502Z,1012.93
2018-10-03T09:30:06.515Z,1012.45
2018-10-03T09:31:06.478Z,1012.41
2018-10-03T09:32:06.471Z,1012.52
2018-10-03T09:33:06.453Z,1012.99
2018-10-03T09:34:06.452Z,1012.61
2018-10-03T09:35:06.460Z,1012.61
2018-10-03T09:36:06.421Z,1013.03
2018-10-03T09:37:06.415Z,1012.90
2018-10-03T09:38:06.397Z,1012.63
2018-10-03T09:39:06.388Z,1013.12
2018-10-03T09:40:06.405Z,1013.17
2018-10-03T09:41:06.369Z,1013.23
2018-10-03T09:42:06.353Z,1012.97
2018-10-03T09:43:06.338Z,1013.09
2018-10-03T09:44:06.341Z,1012.68
2018-10-03T09:45:06.351Z,1012.65
2018-10-03T09:46:06.312Z,1012.65
2018-10-03T09:47:06.293Z,1012.67
2018-10-03T09:48:06.291Z,1012.71
2018-10-03T09:49:06.279Z,1012.79
2018-10-03T09:50:06.259Z,1012.76
2018-10-03T09:51:06.280Z,1012.89
2018-10-03T09:52:06.235Z,1012.79
2018-10-03T09:53:06.228Z,1012.75
2018-10-03T09:54:06.219Z,1012.75
2018-10-03T09:55:06.205Z,1012.72
2018-10-03T09:56:06.217Z,1012.89
2018-10-03T09:57:06.177Z,1013.04
2018-10-03T09:58:06.195Z,1012.84
2018-10-03T09:59:06.154Z,1012.83
2018-10-03T10:00:06.151Z,1012.86
2018-10-03T10:01:06.158Z,1012.88
2018-10-03T10:02:06.127Z,1012.84
2018-10-03T10:03:06.107Z,1012.93
2018-10-03T10:04:06.104Z,1012.92
2018-10-03T10:05:06.088Z,1012.84
2018-10-03T10:06:06.100Z,1012.91
2018-10-03T10:07:06.070Z,1012.95
2018-10-03T10:08:06.055Z,1012.94
2018-10-03T10:09:06.037Z,1012.97
2018-10-03T10:10:06.038Z,1012.99
2018-10-03T10:11:06.073Z,1013.01
2018-10-03T10:12:06.005Z,1012.98
2018-10-03T10:13:05.994Z,1013.00
2018-10-03T10:14:05.984Z,1013.05
2018-10-03T10:15:05.975Z,1013.04
2018-10-03T10:16:05.976Z,1013.04
2018-10-03T10:17:05.953Z,1013.10
2018-10-03T10:18:05.938Z,1013.04
2018-10-03T10:19:05.928Z,1013.15
2018-10-03T10:20:05.906Z,1013.11
2018-10-03T10:21:05.917Z,1013.31
2018-10-03T10:22:05.892Z,1013.24
2018-10-03T10:23:05.874Z,1013.46
2018-10-03T10:24:05.864Z,1013.43
2018-10-03T10:25:05.852Z,1013.38
2018-10-03T10:26:05.868Z,1013.45
2018-10-03T10:27:05.835Z,1013.40
2018-10-03T10:28:05.814Z,1013.38
2018-10-03T10:29:05.806Z,1013.05
2018-10-03T10:30:05.800Z,1013.27
2018-10-03T10:31:05.809Z,1012.95
2018-10-03T10:32:05.783Z,1012.94
2018-10-03T10:33:05.799Z,1013.09
2018-10-03T10:34:05.755Z,1013.18
2018-10-03T10:35:05.734Z,1013.10
2018-10-03T10:36:05.748Z,1013.03
2018-10-03T10:37:05.714Z,1013.04
2018-10-03T10:38:05.708Z,1013.31
2018-10-03T10:39:05.693Z,1013.31
2018-10-03T10:40:05.701Z,1013.02
2018-10-03T10:41:05.766Z,1012.97
2018-10-03T10:42:05.658Z,1013.06
2018-10-03T10:43:05.647Z,1013.06
2018-10-03T10:44:05.635Z,1013.03
2018-10-03T10:45:05.630Z,1012.96
2018-10-03T10:46:05.636Z,1013.11
2018-10-03T10:47:05.604Z,1013.39
2018-10-03T10:48:05.584Z,1013.50
2018-10-03T10:49:05.576Z,1013.42
2018-10-03T10:50:05.578Z,1013.17
2018-10-03T10:51:05.552Z,1013.35
2018-10-03T10:52:05.560Z,1013.18
2018-10-03T10:53:05.533Z,1013.20
2018-10-03T10:54:05.516Z,1013.52
2018-10-03T10:55:05.504Z,1013.37
2018-10-03T10:56:05.501Z,1013.22
2018-10-03T10:57:05.514Z,1013.16
2018-10-03T10:58:05.469Z,1013.16
2018-10-03T10:59:05.466Z,1013.17
2018-10-03T11:00:05.447Z,1013.15
2018-10-03T11:01:05.441Z,1013.20
2018-10-03T11:02:05.447Z,1013.20
2018-10-03T11:03:05.416Z,1013.24
2018-10-03T11:04:05.399Z,1013.17
2018-10-03T11:05:05.393Z,1013.29
2018-10-03T11:06:05.419Z,1013.26
2018-10-03T11:07:05.386Z,1013.67
2018-10-03T11:08:05.361Z,1013.44
2018-10-03T11:09:05.344Z,1013.62
2018-10-03T11:10:05.338Z,1013.73
2018-10-03T11:11:05.328Z,1013.76
2018-10-03T11:12:05.335Z,1013.81
2018-10-03T11:13:05.300Z,1013.67
2018-10-03T11:14:05.285Z,1013.40
2018-10-03T11:15:05.277Z,1013.31
2018-10-03T11:16:05.264Z,1013.33
2018-10-03T11:17:05.344Z,1013.35
2018-10-03T11:18:05.238Z,1013.33
2018-10-03T11:19:05.235Z,1013.39
2018-10-03T11:20:05.224Z,1013.33
2018-10-03T11:21:05.210Z,1013.29
2018-10-03T11:22:05.219Z,1013.34
2018-10-03T11:23:05.188Z,1013.30
2018-10-03T11:24:05.271Z,1013.36
2018-10-03T11:25:05.157Z,1013.29
2018-10-03T11:26:05.153Z,1013.33
2018-10-03T11:27:05.155Z,1013.35
2018-10-03T11:28:05.126Z,1013.75
2018-10-03T11:29:05.120Z,1013.78
2018-10-03T11:30:05.099Z,1013.82
2018-10-03T11:31:05.090Z,1013.48
2018-10-03T11:32:05.183Z,1013.43
2018-10-03T11:33:05.069Z,1013.49
2018-10-03T11:34:05.055Z,1013.47
2018-10-03T11:35:05.040Z,1013.49
2018-10-03T11:36:05.036Z,1013.44
2018-10-03T11:37:05.044Z,1013.44
2018-10-03T11:38:05.057Z,1013.46
2018-10-03T11:39:04.993Z,1013.58
2018-10-03T11:40:04.986Z,1013.67
2018-10-03T11:41:04.978Z,1013.71
2018-10-03T11:42:04.986Z,1013.61
2018-10-03T11:43:04.951Z,1013.53
2018-10-03T11:44:04.956Z,1013.68
2018-10-03T11:45:04.929Z,1013.43
2018-10-03T11:46:04.913Z,1013.38
2018-10-03T11:47:04.931Z,1013.65
2018-10-03T11:48:04.892Z,1013.65
2018-10-03T11:49:04.886Z,1013.73
2018-10-03T11:50:04.865Z,1013.48
2018-10-03T11:51:04.863Z,1013.39
2018-10-03T11:52:04.863Z,1013.39
2018-10-03T11:53:04.835Z,1013.40
2018-10-03T11:54:04.825Z,1013.38
2018-10-03T11:55:04.813Z,1013.36
2018-10-03T11:56:04.796Z,1013.39
2018-10-03T11:57:04.862Z,1013.44
2018-10-03T11:58:04.782Z,1013.44
2018-10-03T11:59:04.760Z,1013.44
2018-10-03T12:00:04.758Z,1013.46
2018-10-03T12:01:04.742Z,1013.39
2018-10-03T12:02:04.762Z,1013.43
2018-10-03T12:03:04.813Z,1013.42
2018-10-03T12:04:04.714Z,1013.42
2018-10-03T12:05:04.696Z,1013.44